Time;durP1;ratioP1;P1;durP2;ratioP2;P2;SDS_P1;SDS_P2;PMS_P1;PMS_P2;Temp;Humidity;BMP_temperature;BMP_pressure;BME280_temperature;BME280_humidity;BME280_pressure;Samples;Min_cycle;Max_cycle;Signal;HPM_P1;HPM_P2
2023/10/14 00:01:30;;;;;;;7.30;1.53;;;;;19.50;95467.00;;;;5073870;28;20215;-61
2023/10/14 00:03:57;;;;;;;2.63;1.20;;;;;19.60;95470.00;;;;5073000;28;20761;-61
2023/10/14 00:06:26;;;;;;;11.60;2.03;;;;;19.70;95468.00;;;;5074324;28;20253;-60
2023/10/14 00:08:57;;;;;;;1.57;1.20;;;;;19.80;95475.00;;;;5073711;28;20195;-60
2023/10/14 00:11:27;;;;;;;1.13;1.13;;;;;19.90;95478.00;;;;5073590;28;20219;-59
2023/10/14 00:13:56;;;;;;;1.60;1.50;;;;;19.70;95481.00;;;;5073897;28;20215;-59
2023/10/14 00:16:35;;;;;;;0.97;0.97;;;;;19.70;95473.00;;;;5073613;28;20599;-59
2023/10/14 00:19:04;;;;;;;1.43;1.33;;;;;19.80;95473.00;;;;5073632;28;20183;-60
2023/10/14 00:21:34;;;;;;;0.93;0.93;;;;;19.60;95474.00;;;;5073839;28;20585;-60
2023/10/14 00:24:06;;;;;;;0.97;0.97;;;;;19.60;95479.00;;;;5072269;28;20306;-60
2023/10/14 00:26:34;;;;;;;0.90;0.90;;;;;19.60;95460.00;;;;5073517;28;20176;-59
2023/10/14 00:29:18;;;;;;;2.03;1.73;;;;;19.60;95441.00;;;;5073377;28;20199;-61
2023/10/14 00:31:46;;;;;;;2.33;1.97;;;;;19.60;95467.00;;;;5073435;28;20212;-60
2023/10/14 00:34:15;;;;;;;1.60;1.53;;;;;19.60;95448.00;;;;5073304;28;20195;-60
2023/10/14 00:36:42;;;;;;;1.73;1.63;;;;;19.30;95458.00;;;;5073440;28;20219;-60
2023/10/14 00:39:16;;;;;;;1.10;1.10;;;;;19.30;95470.00;;;;5073342;28;20221;-60
2023/10/14 00:41:46;;;;;;;1.17;1.17;;;;;19.20;95447.00;;;;5073830;28;20203;-60
2023/10/14 00:44:14;;;;;;;1.37;1.30;;;;;19.30;95440.00;;;;5073202;28;20260;-60
2023/10/14 00:46:48;;;;;;;1.37;1.27;;;;;19.00;95440.00;;;;5073486;28;20199;-60
2023/10/14 00:49:16;;;;;;;1.07;1.07;;;;;18.90;95449.00;;;;5073597;28;20179;-60
2023/10/14 00:51:47;;;;;;;1.10;1.10;;;;;19.00;95438.00;;;;5073653;28;20234;-59
2023/10/14 00:54:25;;;;;;;8.67;1.97;;;;;18.70;95443.00;;;;5073252;28;20178;-60
2023/10/14 00:57:00;;;;;;;1.53;1.43;;;;;18.30;95435.00;;;;5073421;28;20191;-61
2023/10/14 00:59:29;;;;;;;0.90;0.90;;;;;18.30;95422.00;;;;5071797;28;20294;-60
2023/10/14 01:01:58;;;;;;;0.97;0.97;;;;;18.10;95419.00;;;;5073178;28;20256;-60
2023/10/14 01:04:32;;;;;;;1.27;1.23;;;;;18.00;95423.00;;;;5072996;28;20260;-60
2023/10/14 01:07:04;;;;;;;1.00;1.00;;;;;18.00;95429.00;;;;5073230;28;20189;-61
2023/10/14 01:09:41;;;;;;;1.10;1.07;;;;;18.00;95427.00;;;;5073248;28;20184;-60
2023/10/14 01:12:19;;;;;;;1.30;1.30;;;;;18.00;95413.00;;;;5072995;28;20207;-60
2023/10/14 01:14:47;;;;;;;0.90;0.90;;;;;17.90;95423.00;;;;5074144;28;20176;-60
2023/10/14 01:17:24;;;;;;;1.47;1.43;;;;;17.80;95420.00;;;;5077033;28;20183;-61
2023/10/14 01:19:52;;;;;;;4.30;1.50;;;;;17.70;95431.00;;;;5077501;28;20184;-61
2023/10/14 01:22:21;;;;;;;1.53;1.43;;;;;17.60;95435.00;;;;5076902;28;20222;-61
2023/10/14 01:24:48;;;;;;;1.20;1.20;;;;;17.70;95433.00;;;;5076745;28;20230;-61
2023/10/14 01:27:16;;;;;;;1.13;1.13;;;;;17.90;95433.00;;;;5076870;28;20231;-61
2023/10/14 01:29:44;;;;;;;1.00;1.00;;;;;17.90;95425.00;;;;5076722;28;20215;-61
2023/10/14 01:32:30;;;;;;;13.47;1.37;;;;;17.70;95422.00;;;;5076623;28;20272;-61
2023/10/14 01:34:59;;;;;;;1.50;1.40;;;;;17.80;95416.00;;;;5076934;28;20183;-61
2023/10/14 01:37:34;;;;;;;1.10;1.10;;;;;17.70;95424.00;;;;5075330;28;20253;-61
2023/10/14 01:40:17;;;;;;;1.13;1.13;;;;;17.70;95420.00;;;;5076604;28;20243;-61
2023/10/14 01:42:46;;;;;;;1.30;1.30;;;;;17.90;95408.00;;;;5076830;28;20211;-61
2023/10/14 01:45:15;;;;;;;1.13;1.13;;;;;17.80;95417.00;;;;5075099;28;20362;-60
2023/10/14 01:47:48;;;;;;;1.47;1.43;;;;;17.60;95420.00;;;;5076706;28;20662;-60
2023/10/14 01:50:16;;;;;;;2.37;2.17;;;;;17.50;95428.00;;;;5076560;28;20186;-60
2023/10/14 01:52:46;;;;;;;1.50;1.40;;;;;17.60;95421.00;;;;5076842;28;20207;-60
2023/10/14 01:55:13;;;;;;;1.67;1.57;;;;;17.60;95415.00;;;;5076320;28;20198;-60
2023/10/14 01:57:39;;;;;;;9.43;1.70;;;;;17.60;95410.00;;;;5076061;28;20214;-60
2023/10/14 02:00:23;;;;;;;1.13;1.13;;;;;17.60;95413.00;;;;5076401;28;20241;-60
2023/10/14 02:03:00;;;;;;;1.70;1.60;;;;;17.60;95408.00;;;;5074777;28;20268;-60
2023/10/14 02:05:29;;;;;;;1.60;1.50;;;;;17.70;95413.00;;;;5076161;28;20566;-60
2023/10/14 02:07:58;;;;;;;1.03;1.03;;;;;17.70;95401.00;;;;5076135;28;20192;-61
2023/10/14 02:10:27;;;;;;;2.10;2.00;;;;;17.70;95390.00;;;;5075954;28;20263;-60
2023/10/14 02:12:56;;;;;;;1.30;1.30;;;;;17.60;95409.00;;;;5075854;28;20207;-60
2023/10/14 02:15:25;;;;;;;1.00;1.00;;;;;17.60;95400.00;;;;5075854;28;20194;-60
2023/10/14 02:17:53;;;;;;;1.50;1.40;;;;;17.60;95396.00;;;;5075798;28;20249;-60
2023/10/14 02:20:28;;;;;;;1.03;1.03;;;;;17.50;95387.00;;;;5075920;28;20601;-61
2023/10/14 02:22:57;;;;;;;0.77;0.77;;;;;17.70;95389.00;;;;5075971;28;20276;-61
2023/10/14 02:25:27;;;;;;;1.37;1.17;;;;;17.60;95371.00;;;;5075559;28;20219;-60
2023/10/14 02:27:54;;;;;;;1.10;1.10;;;;;17.70;95366.00;;;;5074908;28;20187;-60
2023/10/14 02:30:22;;;;;;;1.70;1.60;;;;;17.60;95368.00;;;;5076131;28;20635;-60
2023/10/14 02:32:50;;;;;;;7.53;1.90;;;;;17.70;95359.00;;;;5075533;28;20753;-62
2023/10/14 02:35:17;;;;;;;1.73;1.63;;;;;17.80;95380.00;;;;5075581;28;20195;-61
2023/10/14 02:37:48;;;;;;;1.20;1.10;;;;;17.60;95358.00;;;;5075496;28;20199;-61
2023/10/14 02:40:24;;;;;;;1.30;1.30;;;;;17.80;95339.00;;;;5076032;28;20176;-61
2023/10/14 02:42:57;;;;;;;1.27;1.27;;;;;17.90;95341.00;;;;5075543;28;20218;-60
2023/10/14 02:45:26;;;;;;;1.17;0.97;;;;;18.00;95333.00;;;;5075376;28;20199;-60
2023/10/14 02:48:01;;;;;;;7.77;1.50;;;;;17.90;95350.00;;;;5075428;28;20192;-60
2023/10/14 02:50:30;;;;;;;0.80;0.80;;;;;18.00;95351.00;;;;5075327;28;20249;-60
2023/10/14 02:53:06;;;;;;;1.93;1.70;;;;;18.10;95352.00;;;;5075137;28;20245;-60
2023/10/14 02:58:20;;;;;;;1.53;1.50;;;;;17.80;95348.00;;;;5074996;28;20548;-59
2023/10/14 03:00:50;;;;;;;1.60;1.50;;;;;17.70;95334.00;;;;5075371;28;20183;-59
2023/10/14 03:03:21;;;;;;;4.23;1.63;;;;;17.80;95347.00;;;;5075471;28;20196;-59
2023/10/14 03:05:54;;;;;;;0.83;0.83;;;;;17.70;95340.00;;;;5075214;28;20211;-59
2023/10/14 03:08:22;;;;;;;1.67;1.57;;;;;17.90;95339.00;;;;5074931;28;20192;-59
2023/10/14 03:10:55;;;;;;;2.23;2.10;;;;;17.90;95351.00;;;;5075081;28;20586;-59
2023/10/14 03:13:23;;;;;;;3.03;2.07;;;;;17.90;95348.00;;;;5075349;28;20226;-59
2023/10/14 03:15:52;;;;;;;1.43;1.33;;;;;18.10;95337.00;;;;5074673;28;20211;-59
2023/10/14 03:18:20;;;;;;;6.70;2.30;;;;;18.20;95346.00;;;;5074661;28;20195;-59
2023/10/14 03:21:00;;;;;;;3.43;1.33;;;;;18.10;95349.00;;;;5074444;28;20554;-59
2023/10/14 03:23:28;;;;;;;1.67;1.57;;;;;18.00;95349.00;;;;5074801;28;20241;-59
2023/10/14 03:26:10;;;;;;;1.10;1.10;;;;;18.10;95351.00;;;;5074611;28;20309;-60
2023/10/14 03:28:38;;;;;;;1.20;1.20;;;;;18.10;95333.00;;;;5074513;28;20183;-61
2023/10/14 03:31:08;;;;;;;1.83;1.73;;;;;18.10;95329.00;;;;5074446;28;20191;-60
2023/10/14 03:33:42;;;;;;;2.33;1.33;;;;;18.10;95342.00;;;;5074281;28;20195;-61
2023/10/14 03:36:15;;;;;;;1.03;1.00;;;;;18.00;95344.00;;;;5074455;28;20179;-61
2023/10/14 03:38:46;;;;;;;1.70;1.60;;;;;18.10;95328.00;;;;5073384;28;20176;-60
2023/10/14 03:41:18;;;;;;;1.23;1.23;;;;;18.00;95330.00;;;;5074150;28;20298;-60
2023/10/14 03:43:54;;;;;;;2.47;1.87;;;;;18.00;95316.00;;;;5074192;28;20180;-60
2023/10/14 03:46:29;;;;;;;1.80;1.70;;;;;18.10;95318.00;;;;5074373;28;20232;-60
2023/10/14 03:48:57;;;;;;;2.13;1.43;;;;;17.90;95311.00;;;;5074562;28;20608;-59
2023/10/14 03:51:25;;;;;;;1.17;1.17;;;;;17.90;95317.00;;;;5073904;28;20211;-59
2023/10/14 03:53:54;;;;;;;2.23;1.67;;;;;18.10;95309.00;;;;5074042;28;20199;-60
2023/10/14 03:56:25;;;;;;;2.53;2.40;;;;;18.10;95309.00;;;;5073859;28;20196;-60
2023/10/14 03:58:55;;;;;;;1.20;1.10;;;;;18.00;95316.00;;;;5074052;28;20218;-58
2023/10/14 04:01:28;;;;;;;2.03;1.83;;;;;17.90;95302.00;;;;5073821;28;20211;-61
2023/10/14 04:03:56;;;;;;;1.70;1.60;;;;;18.00;95304.00;;;;5073756;28;20215;-60
2023/10/14 04:06:23;;;;;;;1.27;1.27;;;;;17.80;95337.00;;;;5073759;28;20310;-60
2023/10/14 04:08:53;;;;;;;1.50;1.40;;;;;17.90;95357.00;;;;5073765;28;20241;-59
2023/10/14 04:11:27;;;;;;;1.43;1.37;;;;;17.90;95346.00;;;;5073908;28;20708;-59
2023/10/14 04:14:07;;;;;;;1.67;1.33;;;;;17.80;95339.00;;;;5072349;28;20198;-60
2023/10/14 04:16:48;;;;;;;2.37;2.17;;;;;17.90;95351.00;;;;5073703;28;20200;-61
2023/10/14 04:19:22;;;;;;;1.70;1.60;;;;;18.00;95358.00;;;;5073628;28;20187;-59
2023/10/14 04:21:58;;;;;;;1.40;1.40;;;;;18.20;95367.00;;;;5073436;28;20223;-59
2023/10/14 04:24:29;;;;;;;0.90;0.90;;;;;18.20;95370.00;;;;5073877;28;20203;-60
2023/10/14 04:29:57;;;;;;;0.87;0.87;;;;;18.30;95367.00;;;;5091346;28;20961;-60
2023/10/14 04:32:27;;;;;;;0.60;0.60;;;;;18.40;95373.00;;;;5090703;28;20215;-61
2023/10/14 04:34:57;;;;;;;1.37;1.00;;;;;18.40;95396.00;;;;5090829;28;20276;-60
2023/10/14 04:37:27;;;;;;;1.40;1.37;;;;;18.50;95360.00;;;;5090563;28;20187;-60
2023/10/14 04:39:59;;;;;;;1.70;1.60;;;;;18.40;95356.00;;;;5091083;28;20205;-61
2023/10/14 04:42:35;;;;;;;0.60;0.60;;;;;18.50;95371.00;;;;5090291;28;20682;-60
2023/10/14 04:45:07;;;;;;;2.63;1.20;;;;;18.60;95361.00;;;;5090440;28;20193;-60
2023/10/14 04:47:37;;;;;;;0.70;0.70;;;;;18.60;95364.00;;;;5090546;28;20539;-60
2023/10/14 04:50:13;;;;;;;1.33;1.33;;;;;18.60;95357.00;;;;5090327;28;20651;-60
2023/10/14 04:52:41;;;;;;;1.70;1.60;;;;;18.60;95359.00;;;;5090152;28;20243;-60
2023/10/14 04:55:25;;;;;;;0.73;0.73;;;;;18.60;95387.00;;;;5090179;28;20195;-60
2023/10/14 04:58:11;;;;;;;1.20;1.13;;;;;18.50;95363.00;;;;5090757;28;20688;-60
2023/10/14 05:00:45;;;;;;;0.70;0.70;;;;;18.60;95365.00;;;;5090576;28;20187;-60
2023/10/14 05:03:13;;;;;;;1.67;1.57;;;;;18.60;95367.00;;;;5090392;28;20290;-60
2023/10/14 05:05:43;;;;;;;1.90;1.80;;;;;18.40;95361.00;;;;5090084;28;20195;-61
2023/10/14 05:08:15;;;;;;;1.30;1.20;;;;;18.50;95361.00;;;;5090070;28;20280;-59
2023/10/14 05:10:44;;;;;;;1.27;0.97;;;;;18.40;95363.00;;;;5090450;28;20179;-61
2023/10/14 05:13:13;;;;;;;1.37;1.30;;;;;18.40;95378.00;;;;5089807;28;20203;-61
2023/10/14 05:15:53;;;;;;;0.80;0.80;;;;;18.40;95371.00;;;;5090336;28;20199;-61
2023/10/14 05:18:28;;;;;;;1.20;1.10;;;;;18.30;95378.00;;;;5090406;28;20228;-61
2023/10/14 05:21:03;;;;;;;1.07;0.97;;;;;18.40;95378.00;;;;5089789;28;20187;-61
2023/10/14 05:23:32;;;;;;;0.80;0.80;;;;;18.50;95406.00;;;;5089797;28;20185;-61
2023/10/14 05:26:06;;;;;;;1.53;1.43;;;;;18.40;95396.00;;;;5089573;28;20554;-61
2023/10/14 05:28:36;;;;;;;5.57;1.47;;;;;18.40;95413.00;;;;5089676;28;20293;-61
2023/10/14 05:31:08;;;;;;;0.73;0.73;;;;;18.40;95409.00;;;;5089576;28;20186;-60
2023/10/14 05:33:35;;;;;;;3.60;1.67;;;;;18.40;95404.00;;;;5089525;28;20198;-60
2023/10/14 05:36:05;;;;;;;1.07;1.07;;;;;18.40;95409.00;;;;5089669;28;20206;-60
2023/10/14 05:38:32;;;;;;;1.30;1.30;;;;;18.40;95410.00;;;;5089482;28;20233;-61
2023/10/14 05:41:01;;;;;;;1.63;1.53;;;;;18.30;95419.00;;;;5077030;28;20195;-61
2023/10/14 05:43:28;;;;;;;6.00;1.83;;;;;18.30;95435.00;;;;5076069;28;20187;-61
2023/10/14 05:45:55;;;;;;;1.20;1.13;;;;;18.30;95415.00;;;;5075741;28;20201;-60
2023/10/14 05:48:30;;;;;;;0.47;0.47;;;;;18.30;95430.00;;;;5074232;28;20306;-60
2023/10/14 05:50:58;;;;;;;0.80;0.80;;;;;18.30;95426.00;;;;5076100;28;20203;-60
2023/10/14 05:53:31;;;;;;;6.67;1.80;;;;;18.20;95431.00;;;;5074511;28;20257;-60
2023/10/14 05:55:59;;;;;;;1.13;1.03;;;;;18.20;95442.00;;;;5076277;28;20535;-59
2023/10/14 05:58:28;;;;;;;0.77;0.77;;;;;18.20;95434.00;;;;5075964;28;20241;-60
2023/10/14 06:00:56;;;;;;;1.10;1.00;;;;;18.20;95443.00;;;;5075647;28;20238;-59
2023/10/14 06:03:25;;;;;;;0.80;0.80;;;;;18.10;95436.00;;;;5075456;28;20553;-60
2023/10/14 06:05:52;;;;;;;1.33;1.23;;;;;18.10;95445.00;;;;5075876;28;20196;-60
2023/10/14 06:08:20;;;;;;;0.77;0.77;;;;;18.10;95449.00;;;;5075480;28;20219;-60
2023/10/14 06:10:47;;;;;;;1.33;1.23;;;;;18.10;95470.00;;;;5075306;28;20195;-60
2023/10/14 06:13:15;;;;;;;1.23;0.97;;;;;18.00;95480.00;;;;5075884;28;20266;-60
2023/10/14 06:15:45;;;;;;;0.80;0.80;;;;;18.00;95473.00;;;;5075731;28;20241;-59
2023/10/14 06:18:15;;;;;;;0.73;0.73;;;;;18.00;95483.00;;;;5075256;28;20188;-59
2023/10/14 06:20:45;;;;;;;2.90;2.37;;;;;18.00;95482.00;;;;5075012;28;20279;-59
2023/10/14 06:23:12;;;;;;;1.37;1.27;;;;;17.90;95485.00;;;;5075627;28;20180;-59
2023/10/14 06:25:40;;;;;;;0.73;0.73;;;;;18.00;95506.00;;;;5075499;28;20230;-59
2023/10/14 06:28:10;;;;;;;0.80;0.80;;;;;17.90;95489.00;;;;5074901;28;20222;-59
2023/10/14 06:30:37;;;;;;;2.63;1.87;;;;;17.90;95491.00;;;;5075684;28;20172;-59
2023/10/14 06:33:05;;;;;;;0.83;0.83;;;;;17.90;95526.00;;;;5074818;28;20209;-59
2023/10/14 06:35:33;;;;;;;6.97;1.43;;;;;18.00;95495.00;;;;5074349;28;20202;-59
2023/10/14 06:38:04;;;;;;;0.60;0.60;;;;;17.90;95502.00;;;;5074831;28;20696;-59
2023/10/14 06:40:35;;;;;;;0.90;0.90;;;;;17.90;95503.00;;;;5074914;28;20542;-61
2023/10/14 06:43:06;;;;;;;0.67;0.67;;;;;17.90;95507.00;;;;5074739;28;20290;-61
2023/10/14 06:45:35;;;;;;;0.60;0.60;;;;;18.00;95535.00;;;;5074872;28;20183;-59
2023/10/14 06:48:04;;;;;;;0.93;0.90;;;;;18.00;95525.00;;;;5074626;28;20201;-59
2023/10/14 06:50:32;;;;;;;0.93;0.87;;;;;17.90;95513.00;;;;5074440;28;20187;-59
2023/10/14 06:53:07;;;;;;;2.00;1.53;;;;;18.00;95513.00;;;;5074024;28;20275;-60
2023/10/14 06:55:39;;;;;;;0.80;0.80;;;;;18.00;95525.00;;;;5074743;28;20175;-60
2023/10/14 06:58:07;;;;;;;0.70;0.70;;;;;18.00;95532.00;;;;5074485;28;20203;-60
2023/10/14 07:00:37;;;;;;;0.77;0.77;;;;;18.10;95544.00;;;;5074329;28;20195;-60
2023/10/14 07:03:07;;;;;;;0.70;0.70;;;;;18.00;95526.00;;;;5072859;28;20261;-61
2023/10/14 07:05:43;;;;;;;1.43;1.37;;;;;18.00;95533.00;;;;5074165;28;20663;-60
2023/10/14 07:08:12;;;;;;;1.00;1.00;;;;;18.00;95545.00;;;;5074222;28;20183;-60
2023/10/14 07:10:39;;;;;;;17.40;1.10;;;;;18.10;95554.00;;;;5074267;28;20227;-60
2023/10/14 07:13:08;;;;;;;0.87;0.87;;;;;17.90;95549.00;;;;5073852;28;20222;-60
2023/10/14 07:15:38;;;;;;;0.93;0.93;;;;;17.90;95544.00;;;;5074144;28;20283;-59
2023/10/14 07:18:08;;;;;;;1.13;1.10;;;;;18.10;95548.00;;;;5073942;28;20179;-60
2023/10/14 07:20:36;;;;;;;0.83;0.83;;;;;18.10;95557.00;;;;5073580;28;20600;-61
2023/10/14 07:23:06;;;;;;;1.60;1.13;;;;;18.00;95546.00;;;;5073776;28;20656;-61
2023/10/14 07:25:37;;;;;;;0.63;0.63;;;;;17.90;95553.00;;;;5074073;28;20301;-61
2023/10/14 07:28:09;;;;;;;0.87;0.87;;;;;17.90;95555.00;;;;5073610;28;20742;-60
2023/10/14 07:30:37;;;;;;;1.17;1.17;;;;;17.80;95556.00;;;;5074559;28;20214;-60
2023/10/14 07:33:06;;;;;;;0.80;0.80;;;;;17.80;95558.00;;;;5074706;28;20211;-58
2023/10/14 07:35:33;;;;;;;0.97;0.97;;;;;17.80;95559.00;;;;5072657;28;20202;-58
2023/10/14 07:38:01;;;;;;;0.70;0.70;;;;;17.80;95541.00;;;;5074449;28;20190;-58
2023/10/14 07:40:30;;;;;;;0.87;0.87;;;;;17.80;95567.00;;;;5073912;28;20689;-59
2023/10/14 07:43:05;;;;;;;0.60;0.60;;;;;17.60;95611.00;;;;5073626;28;20216;-59
2023/10/14 07:45:34;;;;;;;0.60;0.60;;;;;17.20;95604.00;;;;5074009;28;20187;-59
2023/10/14 07:48:08;;;;;;;0.67;0.67;;;;;16.90;95622.00;;;;5073401;28;20195;-60
2023/10/14 07:50:37;;;;;;;0.50;0.50;;;;;17.00;95605.00;;;;5073248;28;20210;-60
2023/10/14 07:53:13;;;;;;;0.63;0.63;;;;;16.80;95605.00;;;;5073476;28;20276;-60
2023/10/14 07:55:41;;;;;;;1.27;0.93;;;;;16.80;95585.00;;;;5073716;28;20245;-60
2023/10/14 07:58:11;;;;;;;4.87;1.00;;;;;16.90;95576.00;;;;5073233;28;20278;-60
2023/10/14 08:00:39;;;;;;;0.50;0.50;;;;;16.80;95595.00;;;;5073292;28;20215;-60
2023/10/14 08:03:09;;;;;;;0.60;0.60;;;;;16.90;95592.00;;;;5073005;28;20219;-61
2023/10/14 08:05:38;;;;;;;0.77;0.77;;;;;17.00;95594.00;;;;5073072;28;20222;-60
2023/10/14 08:08:08;;;;;;;0.60;0.60;;;;;16.90;95601.00;;;;5073664;28;20633;-60
2023/10/14 08:10:36;;;;;;;0.40;0.40;;;;;16.90;95597.00;;;;5073260;28;20199;-61
2023/10/14 08:13:04;;;;;;;1.17;0.70;;;;;17.00;95589.00;;;;5073021;28;20218;-61
2023/10/14 08:15:32;;;;;;;0.40;0.40;;;;;17.00;95581.00;;;;5073128;28;20663;-61
2023/10/14 08:18:00;;;;;;;0.50;0.50;;;;;17.10;95582.00;;;;5072989;28;20559;-62
2023/10/14 08:20:30;;;;;;;0.50;0.50;;;;;17.00;95590.00;;;;5072959;28;20183;-61
2023/10/14 08:22:59;;;;;;;0.60;0.60;;;;;17.10;95578.00;;;;5073329;28;20694;-61
2023/10/14 08:25:28;;;;;;;0.53;0.53;;;;;17.40;95591.00;;;;5073996;28;20199;-59
2023/10/14 08:27:57;;;;;;;0.60;0.60;;;;;17.50;95572.00;;;;5073391;28;20571;-60
2023/10/14 08:30:25;;;;;;;0.50;0.50;;;;;17.70;95578.00;;;;5072825;28;20250;-61
2023/10/14 08:32:54;;;;;;;0.47;0.47;;;;;17.50;95577.00;;;;5072756;28;20579;-60
2023/10/14 08:35:27;;;;;;;0.50;0.50;;;;;17.70;95583.00;;;;5072944;28;20192;-60
2023/10/14 08:37:57;;;;;;;0.70;0.70;;;;;17.80;95574.00;;;;5073309;28;20180;-59
2023/10/14 08:40:26;;;;;;;2.93;1.37;;;;;17.80;95572.00;;;;5072861;28;20650;-59
2023/10/14 08:42:57;;;;;;;1.03;0.70;;;;;17.90;95565.00;;;;5072816;28;20211;-60
2023/10/14 08:45:26;;;;;;;0.83;0.83;;;;;18.00;95576.00;;;;5073372;28;20182;-59
2023/10/14 08:47:58;;;;;;;0.70;0.70;;;;;17.90;95572.00;;;;5072758;28;20682;-60
2023/10/14 08:50:29;;;;;;;0.60;0.60;;;;;18.10;95577.00;;;;5072989;28;20290;-59
2023/10/14 08:53:00;;;;;;;0.60;0.60;;;;;18.00;95583.00;;;;5072777;28;20633;-59
2023/10/14 08:55:29;;;;;;;1.43;1.00;;;;;17.50;95602.00;;;;5071398;28;20188;-60
2023/10/14 08:58:01;;;;;;;0.70;0.70;;;;;17.50;95582.00;;;;5072848;28;20191;-59
2023/10/14 09:00:30;;;;;;;0.87;0.87;;;;;17.80;95591.00;;;;5072678;28;20180;-60
2023/10/14 09:02:59;;;;;;;0.43;0.43;;;;;18.20;95611.00;;;;5072646;28;20220;-60
2023/10/14 09:05:28;;;;;;;3.10;0.93;;;;;17.90;95626.00;;;;5072665;28;20191;-59
2023/10/14 09:07:58;;;;;;;0.60;0.60;;;;;17.10;95636.00;;;;5072622;28;20270;-59
2023/10/14 09:10:26;;;;;;;0.40;0.40;;;;;16.30;95648.00;;;;5072377;28;20265;-59
2023/10/14 09:13:03;;;;;;;0.50;0.50;;;;;16.10;95640.00;;;;5071114;28;20215;-59
2023/10/14 09:15:33;;;;;;;0.50;0.50;;;;;16.00;95642.00;;;;5074580;28;20187;-61
2023/10/14 09:18:02;;;;;;;0.40;0.40;;;;;16.10;95650.00;;;;5074938;28;20278;-60
2023/10/14 09:20:32;;;;;;;0.50;0.50;;;;;15.90;95657.00;;;;5076606;28;20198;-59
2023/10/14 09:23:14;;;;;;;0.50;0.50;;;;;15.70;95654.00;;;;5076466;28;20219;-61
2023/10/14 09:25:46;;;;;;;0.50;0.50;;;;;15.60;95673.00;;;;5076050;28;20195;-60
2023/10/14 09:28:16;;;;;;;0.57;0.57;;;;;15.50;95666.00;;;;5076572;28;20249;-59
2023/10/14 09:30:46;;;;;;;0.50;0.50;;;;;15.60;95659.00;;;;5076199;28;20211;-59
2023/10/14 09:33:20;;;;;;;0.50;0.50;;;;;15.80;95663.00;;;;5076106;28;20530;-59
2023/10/14 09:35:49;;;;;;;0.50;0.50;;;;;15.80;95663.00;;;;5076332;28;20179;-59
2023/10/14 09:38:21;;;;;;;0.70;0.70;;;;;15.90;95656.00;;;;5076216;28;20273;-59
2023/10/14 09:40:54;;;;;;;0.43;0.43;;;;;16.10;95652.00;;;;5076099;28;20184;-59
2023/10/14 09:43:25;;;;;;;0.60;0.60;;;;;16.20;95658.00;;;;5075876;28;20172;-59
2023/10/14 09:45:56;;;;;;;0.57;0.57;;;;;16.40;95656.00;;;;5075402;28;20192;-59
2023/10/14 09:48:29;;;;;;;0.50;0.50;;;;;16.50;95658.00;;;;5076156;28;20183;-59
2023/10/14 09:50:57;;;;;;;0.57;0.57;;;;;16.60;95643.00;;;;5075813;28;20204;-60
2023/10/14 09:53:29;;;;;;;0.50;0.50;;;;;16.80;95646.00;;;;5075682;28;20278;-60
2023/10/14 09:55:58;;;;;;;0.50;0.50;;;;;16.50;95658.00;;;;5076229;28;20180;-60
2023/10/14 09:58:30;;;;;;;0.60;0.60;;;;;16.70;95648.00;;;;5075913;28;20554;-60
2023/10/14 10:00:59;;;;;;;0.77;0.77;;;;;16.90;95650.00;;;;5075629;28;20608;-60
2023/10/14 10:03:31;;;;;;;0.40;0.40;;;;;17.00;95661.00;;;;5075858;28;20191;-60
2023/10/14 10:06:14;;;;;;;0.60;0.60;;;;;16.80;95661.00;;;;5075548;28;20192;-61
2023/10/14 10:09:04;;;;;;;0.60;0.60;;;;;16.80;95662.00;;;;5075873;28;20179;-60
2023/10/14 10:11:33;;;;;;;0.40;0.40;;;;;16.70;95659.00;;;;5075511;28;20223;-60
2023/10/14 10:14:01;;;;;;;0.40;0.40;;;17.50;63.00;16.70;95663.00;;;;5075507;28;20195;-60
2023/10/14 10:16:32;;;;;;;0.80;0.80;;;17.30;63.60;16.40;95665.00;;;;5055224;28;20191;-60
2023/10/14 10:19:02;;;;;;;0.80;0.80;;;17.10;63.30;16.30;95673.00;;;;5055497;28;20243;-60
2023/10/14 10:21:34;;;;;;;0.50;0.50;;;16.90;64.70;16.00;95654.00;;;;5055028;28;20219;-60
2023/10/14 10:24:19;;;;;;;0.50;0.50;;;16.70;65.70;15.90;95651.00;;;;5055088;28;20177;-59
2023/10/14 10:27:08;;;;;;;0.50;0.50;;;16.50;66.90;15.80;95650.00;;;;5054905;28;20263;-59
2023/10/14 10:29:45;;;;;;;0.80;0.80;;;16.40;66.90;15.80;95644.00;;;;5054720;28;20286;-56
2023/10/14 10:32:18;;;;;;;0.60;0.60;;;16.30;68.40;15.90;95650.00;;;;5055092;28;20219;-61
2023/10/14 10:35:26;;;;;;;0.60;0.60;;;16.40;67.90;15.90;95647.00;;;;5055158;28;20222;-61
2023/10/14 10:37:57;;;;;;;0.60;0.60;;;16.50;68.30;15.80;95649.00;;;;5050730;28;20208;-60
2023/10/14 10:40:26;;;;;;;0.60;0.60;;;16.40;67.60;15.70;95652.00;;;;5055229;28;20181;-61
2023/10/14 10:42:57;;;;;;;0.50;0.50;;;16.40;66.50;15.60;95658.00;;;;5054917;28;20212;-60
2023/10/14 10:45:30;;;;;;;0.60;0.60;;;16.30;68.40;15.50;95663.00;;;;5055320;28;20168;-60
2023/10/14 10:48:03;;;;;;;0.57;0.57;;;16.20;70.10;15.10;95666.00;;;;5055047;28;20241;-54
2023/10/14 10:50:36;;;;;;;0.50;0.50;;;15.80;69.60;15.20;95649.00;;;;5054677;28;20283;-54
2023/10/14 10:53:22;;;;;;;0.60;0.60;;;15.80;71.10;15.20;95662.00;;;;5054195;28;20570;-54
2023/10/14 10:55:51;;;;;;;0.50;0.50;;;15.80;71.50;15.10;95664.00;;;;5054242;28;20192;-54
2023/10/14 10:58:20;;;;;;;0.60;0.60;;;15.80;71.60;14.90;95664.00;;;;5054319;28;20695;-53
2023/10/14 11:00:49;;;;;;;0.50;0.50;;;15.60;72.90;15.00;95652.00;;;;5054433;28;20220;-54
2023/10/14 11:03:17;;;;;;;0.50;0.50;;;15.60;73.20;15.10;95660.00;;;;5054336;28;20200;-54
2023/10/14 11:05:48;;;;;;;0.50;0.50;;;15.60;72.50;15.10;95653.00;;;;5054432;28;20192;-54
2023/10/14 11:08:15;;;;;;;0.50;0.50;;;15.60;71.50;15.00;95646.00;;;;5054229;28;20187;-54
2023/10/14 11:10:43;;;;;;;0.40;0.40;;;15.60;70.90;15.20;95632.00;;;;5054334;28;20752;-53
2023/10/14 11:13:13;;;;;;;0.60;0.60;;;15.80;71.30;15.60;95645.00;;;;5053956;28;20208;-53
2023/10/14 11:15:43;;;;;;;0.67;0.67;;;16.00;70.70;15.50;95643.00;;;;5054249;28;20266;-54
2023/10/14 11:18:10;;;;;;;0.53;0.53;;;16.00;70.60;15.40;95644.00;;;;5054104;28;20192;-53
2023/10/14 11:20:43;;;;;;;0.40;0.40;;;16.00;69.60;15.40;95645.00;;;;5053932;28;20674;-54
2023/10/14 11:23:14;;;;;;;0.50;0.50;;;16.00;72.10;15.60;95653.00;;;;5053823;28;20219;-55
2023/10/14 11:25:42;;;;;;;0.40;0.40;;;16.10;71.30;15.40;95669.00;;;;5053958;28;20184;-54
2023/10/14 11:28:14;;;;;;;0.70;0.70;;;16.00;70.30;15.40;95666.00;;;;5053565;28;20192;-54
2023/10/14 11:30:43;;;;;;;0.40;0.40;;;16.00;71.50;15.00;95673.00;;;;5053558;28;20598;-54
2023/10/14 11:33:12;;;;;;;0.63;0.63;;;15.70;72.30;14.80;95657.00;;;;5053639;28;20322;-55
2023/10/14 11:35:40;;;;;;;0.50;0.50;;;15.50;72.50;14.90;95652.00;;;;5053948;28;20196;-55
2023/10/14 11:38:12;;;;;;;0.50;0.50;;;15.50;73.60;14.80;95665.00;;;;5053327;28;20184;-54
2023/10/14 11:40:47;;;;;;;0.60;0.60;;;15.40;73.20;14.80;95663.00;;;;5053720;28;20591;-55
2023/10/14 11:43:16;;;;;;;0.50;0.50;;;15.30;73.80;15.00;95657.00;;;;5054230;28;20234;-55
2023/10/14 11:45:44;;;;;;;0.63;0.63;;;15.50;74.40;15.00;95651.00;;;;5053469;28;20184;-54
2023/10/14 11:48:25;;;;;;;0.70;0.70;;;15.50;73.30;14.80;95647.00;;;;5053480;28;20720;-55
2023/10/14 11:50:55;;;;;;;0.50;0.50;;;15.40;71.50;14.70;95663.00;;;;5053609;28;20556;-54
2023/10/14 11:53:28;;;;;;;0.40;0.40;;;15.40;72.10;14.70;95655.00;;;;5053282;28;20192;-54
2023/10/14 11:56:01;;;;;;;0.47;0.47;;;;;14.10;95659.00;;;;5053623;28;20176;-54
2023/10/14 11:58:29;;;;;;;0.50;0.50;;;;;14.30;95662.00;;;;5053347;28;20196;-54
2023/10/14 12:00:56;;;;;;;0.40;0.40;;;;;14.30;95660.00;;;;5053593;28;20188;-55
2023/10/14 12:03:26;;;;;;;0.60;0.60;;;;;14.20;95651.00;;;;5053284;28;20200;-54
2023/10/14 12:05:57;;;;;;;0.60;0.60;;;;;14.20;95660.00;;;;5053745;28;20215;-55
2023/10/14 12:08:26;;;;;;;0.40;0.40;;;;;14.10;95680.00;;;;5053539;28;20188;-55
2023/10/14 12:10:53;;;;;;;0.60;0.60;;;;;14.10;95681.00;;;;5053266;28;20314;-54
2023/10/14 12:13:23;;;;;;;0.60;0.60;;;;;14.10;95674.00;;;;5052870;28;20200;-54
2023/10/14 12:15:51;;;;;;;0.60;0.60;;;;;14.20;95666.00;;;;5053676;28;20230;-54
2023/10/14 12:18:20;;;;;;;0.40;0.40;;;;;14.20;95673.00;;;;5053021;28;20192;-54
2023/10/14 12:20:48;;;;;;;0.50;0.50;;;;;14.00;95685.00;;;;5053177;28;20578;-54
2023/10/14 12:23:18;;;;;;;0.50;0.50;;;;;14.00;95686.00;;;;5052896;28;20188;-54
2023/10/14 12:25:46;;;;;;;0.50;0.50;;;;;14.10;95691.00;;;;5052952;28;20270;-55
2023/10/14 12:28:17;;;;;;;0.50;0.50;;;;;14.30;95694.00;;;;5052831;28;20265;-56
2023/10/14 12:30:46;;;;;;;0.50;0.50;;;;;14.50;95687.00;;;;5052964;28;20572;-55